AirNav   Everest Fuels
 
 446 users online  

89TE Plaza Medical Center Heliport
Fort Worth, Texas, USA


FAA INFORMATION EFFECTIVE 03 NOVEMBER 2022

Location

FAA Identifier: 89TE
Lat/Long: 32-44-09.3100N 097-20-46.4000W
32-44.155167N 097-20.773333W
32.7359194,-97.3462222
(estimated)
Elevation: 667 ft. / 203 m (estimated)
From city: 1 mile SW of FORT WORTH, TX
Time zone: UTC -6 (UTC -5 during Daylight Saving Time)
Zip code: 76104

Heliport Operations

Heliport use: Private use. Permission required prior to landing
Activation date: 10/2020
Control tower: no
ARTCC: FORT WORTH CENTER
FSS: FORT WORTH FLIGHT SERVICE STATION
Attendance: UNATNDD
Wind indicator: yes
Segmented circle: no

Heliport Communications

WX ASOS at FTW (5 nm N): PHONE 817-740-3346
WX AWOS-3PT at FWS (10 nm S): 120.025 (817-426-4172)
WX ASOS at GKY (13 nm E): 127.375 (817-557-0251)
WX AWOS-3P at GPM (15 nm E): 118.475 (972-606-1433)
WX ASOS at AFW (15 nm N): PHONE 817-491-6188
WX ASOS at DFW (18 nm NE): PHONE 972-615-2608

Nearby radio navigation aids

VOR radial/distance  VOR name  Freq  Var
FUZr216/12.5RANGER VORTAC115.7006E
TTTr237/17.4MAVERICK VOR/DME113.1006E
CVEr241/24.1COWBOY VOR/DME116.2006E
MQPr080/32.9MILLSAP VORTAC117.7009E

 
NDB name  Hdg/Dist  Freq  Var  ID
MUFIN164/9.536508EFT ..-. -

Heliport Services

Runway Information

Helipad H1

Dimensions: 53 x 53 ft. / 16 x 16 m
Surface: mats, in good condition
Latitude: 32-44.155167N
Longitude: 097-20.773333W
Elevation: 667.0 ft.
Traffic pattern: leftleft

Heliport Ownership and Management from official FAA records

Ownership: Privately-owned
Owner: MEDICAL CITY FORT WORTH
900 EIGHTH AVENUE
FORT WORTH, TX 76104
Phone 817-347-4571
Manager: JAY GRUBBS
900 EIGHTH AVENUE
FORT WORTH, TX 76104
Phone 817-347-4571

Instrument Procedures

There are no published instrument procedures at 89TE.

Some nearby airports with instrument procedures:

KFTW - Fort Worth Meacham International Airport (5 nm N)
KNFW - Fort Worth Naval Air Station JRB (Carswell Field) Airport (5 nm NW)
KFWS - Fort Worth Spinks Airport (10 nm S)
KGKY - Arlington Municipal Airport (13 nm E)
KGPM - Grand Prairie Municipal Airport (15 nm E)
KAFW - Perot Field/Fort Worth Alliance Airport (15 nm N)
50F - Bourland Field Airport (15 nm SW)
4T2 - Kenneth Copeland Airport (16 nm NW)
KWEA - Parker County Airport (17 nm W)
KDFW - Dallas-Fort Worth International Airport (18 nm NE)
 
Loc | Ops | Rwys | IFR | FBO | Links
Com | Nav | Svcs | Stats | Notes
Aerial photo
No photo
 
Airport distance calculator
Flying to Plaza Medical Center Heliport? Find the distance to fly.

From to 89TE

Sunrise and sunset
Times for 30-Nov-2022
 Local
(UTC-6)
 Zulu
(UTC)
Morning civil twilight06:4712:47
Sunrise07:1413:14
Sunset17:2223:22
Evening civil twilight17:4923:49

Current date and time
Zulu (UTC)  30-Nov-2022 09:51:16
Local (UTC-6)  30-Nov-2022 03:51:16
 
METAR
KNFW 
6nm W 
300852Z AUTO 35014KT 10SM CLR 03/M03 A3026 RMK AO2 SLP229 T00281033 51028 TSNO $
KFTW 
6nm N 
300853Z 33013KT 10SM CLR 02/M03 A3024 RMK AO2 SLP238 T00221028 51028
KFWS 
10nm S 
300935Z AUTO 35015G22KT 10SM CLR 03/M04 A3027 RMK AO2 T00261035
KGKY 
13nm E 
300853Z AUTO 32015G22KT 10SM CLR 04/M03 A3023 RMK AO2 SLP231 T00391028 51029
KAFW 
14nm N 
300853Z 35012KT 10SM CLR 02/M03 A3025 RMK AO2 SLP242 T00221033 53029
KGPM 
15nm E 
300935Z AUTO 35010G18KT 10SM CLR 04/M03 A3027 RMK AO2 T00351030
KDFW 
19nm NE 
300853Z 35014KT 10SM CLR 03/M03 A3022 RMK AO2 SLP230 T00331033 51031
TAF
KNFW 
6nm W 
3007/0107 34013G21KT 9999 SKC QNH3012INS TEMPO 3007/3009 33018G28KT FM301200 02010KT 9999 FEW280 QNH3025INS BECMG 0101/0103 07006KT 9999 FEW040 SCT280 QNH3034INS AUTOMATED SENSOR METWATCH 3007 TIL 3012 T03/3011Z T11/3019Z FN00193
KFTW 
6nm N 
300527Z 3006/0106 35018G28KT P6SM SKC FM301100 01014KT P6SM SKC FM301800 03008KT P6SM SKC FM010400 08007KT P6SM SKC
KGKY 
13nm E 
300527Z 3006/0106 35020G30KT P6SM SKC FM301100 01014KT P6SM SKC FM301800 02010KT P6SM SKC FM010400 07006KT P6SM SKC
KAFW 
14nm N 
300527Z 3006/0106 35018G28KT P6SM SKC FM301100 01014KT P6SM SKC FM301800 03009KT P6SM SKC FM010400 07006KT P6SM SKC
KDFW 
19nm NE 
300527Z 3006/0112 35020G30KT P6SM SKC FM301100 01014KT P6SM SKC FM301800 03009KT P6SM SKC FM010400 08007KT P6SM SKC
NOTAMs
Click for the latest NOTAMs
NOTAMs are issued by the DoD/FAA and will open in a separate window not controlled by AirNav.

 

 
 

Would you like to see your business listed on this page?

 If your business provides an interesting product or service to pilots, flight crews, aircraft, or users of the Plaza Medical Center Heliport, you should consider listing it here.  To start the listing process, click on the button below
 
Add a business
 

Other Pages about Plaza Medical Center Heliport

Update a link
 
Copyright © AirNav, LLC. All rights reserved. Privacy Policy  Contact